Time;durP1;ratioP1;P1;durP2;ratioP2;P2;SDS_P1;SDS_P2;PMS_P1;PMS_P2;Temp;Humidity;BMP_temperature;BMP_pressure;BME280_temperature;BME280_humidity;BME280_pressure;Samples;Min_cycle;Max_cycle;Signal;HPM_P1;HPM_P2
2020/12/18 00:01:55;;;;;;;46.28;15.30;;;;;;;4.61;100.00;102140.13;4952062;28;20043;-69
2020/12/18 00:04:20;;;;;;;49.92;15.68;;;;;;;4.67;100.00;102139.78;4953281;28;20114;-69
2020/12/18 00:06:46;;;;;;;53.38;15.73;;;;;;;4.64;100.00;102134.63;4951761;28;20035;-70
2020/12/18 00:09:11;;;;;;;48.80;15.10;;;;;;;4.61;100.00;102137.47;4952778;28;20035;-69
2020/12/18 00:11:37;;;;;;;46.97;14.68;;;;;;;4.56;100.00;102143.06;4952573;28;20031;-70
2020/12/18 00:14:03;;;;;;;45.30;14.40;;;;;;;4.52;100.00;102140.69;4952604;28;20027;-70
2020/12/18 00:16:32;;;;;;;38.25;15.27;;;;;;;4.49;100.00;102140.91;4951520;29;20035;-69
2020/12/18 00:18:57;;;;;;;44.60;15.60;;;;;;;4.47;100.00;102138.38;4949909;28;20035;-70
2020/12/18 00:21:23;;;;;;;44.08;14.82;;;;;;;4.49;100.00;102130.28;4952040;28;20118;-70
2020/12/18 00:23:50;;;;;;;41.42;14.23;;;;;;;4.46;100.00;102131.31;4947952;29;20039;-69
2020/12/18 00:26:16;;;;;;;51.50;16.20;;;;;;;4.49;100.00;102124.97;4948811;29;20062;-70
2020/12/18 00:28:42;;;;;;;48.72;16.95;;;;;;;4.59;100.00;102131.41;4951221;28;20039;-70
2020/12/18 00:31:07;;;;;;;52.78;15.60;;;;;;;4.59;100.00;102124.28;4951248;28;20048;-70
2020/12/18 00:33:33;;;;;;;52.10;16.08;;;;;;;4.57;100.00;102128.00;4951480;29;20038;-70
2020/12/18 00:35:59;;;;;;;49.78;15.40;;;;;;;4.57;100.00;102123.56;4950792;28;20039;-70
2020/12/18 00:38:24;;;;;;;41.30;14.68;;;;;;;4.52;100.00;102119.44;4951408;28;20035;-69
2020/12/18 00:40:50;;;;;;;48.50;15.70;;;;;;;4.55;100.00;102120.13;4952230;28;20035;-70
2020/12/18 00:43:16;;;;;;;53.88;16.23;;;;;;;4.57;100.00;102123.56;4951508;28;20059;-70
2020/12/18 00:45:43;;;;;;;52.10;16.13;;;;;;;4.61;100.00;102113.56;4952450;28;20031;-72
2020/12/18 00:48:10;;;;;;;59.05;17.60;;;;;;;4.62;100.00;102110.81;4951034;29;20066;-69
2020/12/18 00:50:36;;;;;;;50.30;16.52;;;;;;;4.70;100.00;102112.13;4951944;29;20042;-70
2020/12/18 00:53:01;;;;;;;52.55;15.52;;;;;;;4.70;100.00;102118.28;4952063;28;20035;-70
2020/12/18 00:55:27;;;;;;;47.17;16.33;;;;;;;4.67;100.00;102113.19;4951810;28;20060;-70
2020/12/18 00:57:53;;;;;;;51.78;15.60;;;;;;;4.66;100.00;102114.97;4951142;28;20039;-70
2020/12/18 01:00:18;;;;;;;43.17;14.50;;;;;;;4.63;100.00;102114.31;4952222;28;20453;-70
2020/12/18 01:02:44;;;;;;;48.10;15.18;;;;;;;4.62;100.00;102109.97;4951380;28;20122;-70
2020/12/18 01:05:09;;;;;;;46.22;15.05;;;;;;;4.59;100.00;102105.69;4951574;28;20114;-70
2020/12/18 01:07:35;;;;;;;46.45;14.88;;;;;;;4.58;100.00;102108.44;4951671;28;20365;-70
2020/12/18 01:10:00;;;;;;;48.22;15.65;;;;;;;4.58;100.00;102108.44;4951160;28;20027;-69
2020/12/18 01:12:26;;;;;;;52.75;14.73;;;;;;;4.62;100.00;102108.16;4950479;28;20031;-70
2020/12/18 01:14:52;;;;;;;69.68;17.85;;;;;;;4.59;100.00;102103.03;4951063;28;20042;-70
2020/12/18 01:17:17;;;;;;;60.65;17.05;;;;;;;4.61;100.00;102106.44;4950242;28;20026;-69
2020/12/18 01:19:43;;;;;;;48.22;15.32;;;;;;;4.69;100.00;102111.28;4950625;28;20046;-69
2020/12/18 01:22:08;;;;;;;58.72;17.45;;;;;;;4.74;100.00;102109.19;4950873;28;20031;-69
2020/12/18 01:24:34;;;;;;;47.97;15.90;;;;;;;4.72;100.00;102111.09;4950223;28;20480;-70
2020/12/18 01:26:59;;;;;;;43.30;15.40;;;;;;;4.66;100.00;102112.31;4949910;28;20114;-70
2020/12/18 01:29:25;;;;;;;59.78;14.65;;;;;;;4.63;100.00;102109.00;4950435;28;20035;-70
2020/12/18 01:31:51;;;;;;;46.45;14.88;;;;;;;4.61;100.00;102106.44;4950864;28;20034;-69
2020/12/18 01:34:17;;;;;;;49.97;15.13;;;;;;;4.66;100.00;102103.47;4950042;29;20031;-69
2020/12/18 01:36:42;;;;;;;54.50;15.45;;;;;;;4.64;100.00;102103.59;4949640;29;20522;-70
2020/12/18 01:39:08;;;;;;;42.67;14.65;;;;;;;4.72;100.00;102103.13;4949996;28;20027;-70
2020/12/18 01:41:34;;;;;;;47.63;13.27;;;;;;;4.70;100.00;102102.34;4949998;28;20122;-70
2020/12/18 01:43:59;;;;;;;57.28;13.40;;;;;;;4.64;100.00;102092.09;4950250;28;20035;-70
2020/12/18 01:46:29;;;;;;;42.63;13.48;;;;;;;4.58;100.00;102098.66;4950180;28;20134;-70
2020/12/18 01:48:55;;;;;;;38.42;13.20;;;;;;;4.63;100.00;102095.72;4950027;28;20102;-70
2020/12/18 01:51:21;;;;;;;46.90;14.32;;;;;;;4.64;100.00;102097.44;4950492;28;20512;-69
2020/12/18 01:53:48;;;;;;;43.13;12.90;;;;;;;4.63;100.00;102098.38;4950144;28;20117;-69
2020/12/18 01:56:14;;;;;;;49.65;12.93;;;;;;;4.62;100.00;102094.03;4949337;28;20455;-69
2020/12/18 01:58:41;;;;;;;40.90;12.50;;;;;;;4.63;100.00;102098.38;4945531;29;20038;-69
2020/12/18 02:01:09;;;;;;;44.75;14.18;;;;;;;4.67;100.00;102097.25;4940779;29;20035;-69
2020/12/18 02:03:35;;;;;;;37.15;12.10;;;;;;;4.66;100.00;102096.38;4950347;28;20032;-69
2020/12/18 02:06:06;;;;;;;40.08;12.48;;;;;;;4.67;100.00;102086.59;4950399;28;20126;-70
2020/12/18 02:08:32;;;;;;;45.55;12.38;;;;;;;4.62;100.00;102094.88;4949432;28;20049;-69
2020/12/18 02:10:59;;;;;;;46.45;11.57;;;;;;;4.61;100.00;102085.16;4951860;28;20279;-69
2020/12/18 02:13:25;;;;;;;36.50;12.00;;;;;;;4.60;100.00;102085.28;4950988;28;20066;-69
2020/12/18 02:15:51;;;;;;;38.22;12.82;;;;;;;4.60;100.00;102083.47;4951463;29;20031;-69
2020/12/18 02:18:19;;;;;;;40.70;11.80;;;;;;;4.61;100.00;102086.97;4950871;28;20460;-69
2020/12/18 02:20:45;;;;;;;48.40;11.93;;;;;;;4.60;100.00;102095.91;4951213;29;20114;-69
2020/12/18 02:23:11;;;;;;;37.97;10.90;;;;;;;4.57;100.00;102090.81;4950816;29;20073;-70
2020/12/18 02:25:39;;;;;;;34.10;11.35;;;;;;;4.54;100.00;102088.31;4950963;28;20514;-69
2020/12/18 02:28:05;;;;;;;40.38;10.32;;;;;;;4.49;100.00;102087.75;4950884;28;20039;-69
2020/12/18 02:30:31;;;;;;;29.65;10.35;;;;;;;4.50;100.00;102086.81;4951146;28;20059;-69
2020/12/18 02:32:58;;;;;;;38.75;11.80;;;;;;;4.49;100.00;102085.09;4950782;28;20515;-69
2020/12/18 02:35:23;;;;;;;47.33;11.70;;;;;;;4.49;100.00;102079.78;4951056;28;20065;-69
2020/12/18 02:37:53;;;;;;;41.05;11.50;;;;;;;4.52;100.00;102076.91;4949001;29;20039;-70
2020/12/18 02:40:19;;;;;;;48.25;10.60;;;;;;;4.55;100.00;102072.28;4950840;28;20035;-69
2020/12/18 02:42:48;;;;;;;35.20;10.80;;;;;;;4.58;100.00;102069.44;4954433;28;20067;-69
2020/12/18 02:45:15;;;;;;;34.22;10.32;;;;;;;4.61;100.00;102069.22;4954928;28;20035;-69
2020/12/18 02:47:42;;;;;;;38.13;10.77;;;;;;;4.67;100.00;102073.31;4954360;29;20033;-69
2020/12/18 02:50:15;;;;;;;36.35;10.00;;;;;;;4.71;100.00;102073.94;4954302;28;20063;-69
2020/12/18 02:52:41;;;;;;;41.60;9.27;;;;;;;4.70;100.00;102070.44;4955254;28;20059;-69
2020/12/18 02:55:09;;;;;;;25.85;9.02;;;;;;;4.68;100.00;102064.38;4954490;28;20114;-69
2020/12/18 02:57:35;;;;;;;31.52;9.70;;;;;;;4.72;100.00;102065.03;4954629;28;20439;-69
2020/12/18 03:00:04;;;;;;;31.15;9.07;;;;;;;4.73;100.00;102064.94;4954621;28;20031;-69
2020/12/18 03:02:37;;;;;;;28.08;9.57;;;;;;;4.64;100.00;102047.78;4954263;28;20032;-69
2020/12/18 03:05:04;;;;;;;28.85;9.27;;;;;;;4.69;100.00;102050.13;4954250;28;20050;-69
2020/12/18 03:07:30;;;;;;;30.33;9.52;;;;;;;4.65;100.00;102046.81;4954265;28;20114;-69
2020/12/18 03:09:55;;;;;;;26.52;8.88;;;;;;;4.67;100.00;102052.91;4953445;29;20174;-69
2020/12/18 03:12:21;;;;;;;31.50;8.77;;;;;;;4.66;100.00;102052.97;4954917;28;20050;-69
2020/12/18 03:14:47;;;;;;;37.78;9.13;;;;;;;4.65;100.00;102044.16;4954082;28;20078;-69
2020/12/18 03:17:14;;;;;;;32.38;9.85;;;;;;;4.64;100.00;102045.13;4953452;28;20043;-69
2020/12/18 03:19:39;;;;;;;27.52;8.93;;;;;;;4.72;100.00;102049.94;4953158;28;20038;-69
2020/12/18 03:22:05;;;;;;;28.20;8.60;;;;;;;4.73;100.00;102042.81;4954029;28;20038;-69
2020/12/18 03:24:31;;;;;;;26.08;8.50;;;;;;;4.71;100.00;102055.34;4953381;28;20039;-69
2020/12/18 03:26:56;;;;;;;29.95;8.45;;;;;;;4.73;100.00;102062.28;4952814;28;20027;-68
2020/12/18 03:29:22;;;;;;;34.08;9.55;;;;;;;4.73;100.00;102054.31;4954467;28;20031;-69
2020/12/18 03:31:47;;;;;;;28.13;8.43;;;;;;;4.75;100.00;102060.38;4952492;28;20031;-69
2020/12/18 03:34:13;;;;;;;26.38;8.07;;;;;;;4.75;100.00;102055.06;4951909;28;20559;-69
2020/12/18 03:36:40;;;;;;;36.13;8.10;;;;;;;4.78;100.00;102060.19;4953240;29;20041;-69
2020/12/18 03:39:07;;;;;;;29.48;8.65;;;;;;;4.80;100.00;102062.72;4954453;28;20196;-69
2020/12/18 03:41:33;;;;;;;40.40;8.88;;;;;;;4.76;100.00;102059.41;4953889;28;20122;-69
2020/12/18 03:43:59;;;;;;;34.55;8.82;;;;;;;4.79;100.00;102055.72;4954010;28;20114;-69
2020/12/18 03:46:24;;;;;;;39.08;8.48;;;;;;;4.75;100.00;102055.06;4953286;28;20135;-69
2020/12/18 03:48:50;;;;;;;28.40;10.02;;;;;;;4.72;100.00;102054.38;4953562;28;20106;-69
2020/12/18 03:51:15;;;;;;;33.58;8.75;;;;;;;4.68;100.00;102048.44;4954100;28;20031;-68
2020/12/18 03:53:41;;;;;;;30.20;8.73;;;;;;;4.71;100.00;102053.53;4953897;28;20032;-69
2020/12/18 03:56:07;;;;;;;31.70;9.23;;;;;;;4.76;100.00;102050.59;4944495;28;20040;-69
2020/12/18 03:58:32;;;;;;;28.45;8.40;;;;;;;4.72;100.00;102047.28;4932923;29;20038;-69
2020/12/18 04:00:58;;;;;;;30.45;8.63;;;;;;;4.66;100.00;102042.34;4953212;28;20035;-69
2020/12/18 04:03:23;;;;;;;27.40;8.95;;;;;;;4.67;100.00;102041.41;4953120;28;20047;-69
2020/12/18 04:05:49;;;;;;;29.67;7.97;;;;;;;4.64;100.00;102037.13;4953911;28;20035;-69
2020/12/18 04:08:17;;;;;;;31.05;7.82;;;;;;;4.65;100.00;102033.53;4952938;28;20125;-69
2020/12/18 04:10:43;;;;;;;28.38;8.52;;;;;;;4.71;100.00;102032.28;4953888;28;20039;-69
2020/12/18 04:13:08;;;;;;;35.42;9.65;;;;;;;4.72;100.00;102034.00;4952971;29;20037;-69
2020/12/18 04:15:34;;;;;;;25.20;8.23;;;;;;;4.70;100.00;102033.22;4953298;28;20440;-69
2020/12/18 04:18:00;;;;;;;27.23;9.02;;;;;;;4.77;100.00;102034.56;4951779;28;20436;-69
2020/12/18 04:20:25;;;;;;;26.83;8.80;;;;;;;4.85;100.00;102037.53;4953600;28;20099;-69
2020/12/18 04:22:51;;;;;;;26.90;9.00;;;;;;;4.84;100.00;102035.84;4953014;28;20514;-69
2020/12/18 04:25:16;;;;;;;27.45;7.68;;;;;;;4.86;100.00;102038.41;4953889;28;20082;-69
2020/12/18 04:27:42;;;;;;;23.88;8.20;;;;;;;4.83;100.00;102042.13;4952636;28;20110;-69
2020/12/18 04:30:08;;;;;;;32.10;8.50;;;;;;;4.81;100.00;102037.84;4953223;28;20035;-69
2020/12/18 04:32:34;;;;;;;34.03;10.55;;;;;;;4.81;100.00;102037.84;4952995;28;20050;-69
2020/12/18 04:34:59;;;;;;;23.80;7.97;;;;;;;4.83;100.00;102034.16;4953232;28;20413;-69
2020/12/18 04:37:25;;;;;;;29.27;8.52;;;;;;;4.83;100.00;102022.66;4952256;28;20052;-69
2020/12/18 04:39:51;;;;;;;24.75;7.57;;;;;;;4.79;100.00;102024.66;4953157;28;20038;-69
2020/12/18 04:42:18;;;;;;;28.60;8.20;;;;;;;4.73;100.00;102027.72;4952582;28;20035;-69
2020/12/18 04:44:44;;;;;;;31.38;7.65;;;;;;;4.76;100.00;102026.66;4952519;28;20031;-69
2020/12/18 04:47:13;;;;;;;31.58;10.00;;;;;;;4.74;100.00;102028.56;4967271;28;20141;-69
2020/12/18 04:49:40;;;;;;;33.42;8.02;;;;;;;4.73;100.00;102022.41;4952947;28;20035;-69
2020/12/18 04:52:10;;;;;;;23.75;7.45;;;;;;;4.72;100.00;102023.38;4952963;28;20082;-69
2020/12/18 04:54:40;;;;;;;20.35;7.38;;;;;;;4.75;100.00;102024.97;4967524;28;20027;-69
2020/12/18 04:57:07;;;;;;;26.65;7.28;;;;;;;4.76;100.00;102022.19;4952084;28;20038;-69
2020/12/18 04:59:34;;;;;;;29.83;7.30;;;;;;;4.75;100.00;102023.16;4966887;28;20385;-69
2020/12/18 05:02:00;;;;;;;25.60;7.63;;;;;;;4.75;100.00;102015.16;4952235;28;20027;-69
2020/12/18 05:04:28;;;;;;;27.38;8.73;;;;;;;4.74;100.00;102008.16;4950976;28;20028;-69
2020/12/18 05:06:54;;;;;;;20.80;7.30;;;;;;;4.75;100.00;102003.69;4952162;28;20102;-69
2020/12/18 05:09:22;;;;;;;22.58;6.63;;;;;;;4.72;100.00;102002.09;4952245;28;20027;-69
2020/12/18 05:11:50;;;;;;;31.55;8.50;;;;;;;4.79;100.00;101995.41;4952173;29;20400;-69
2020/12/18 05:14:16;;;;;;;34.95;8.32;;;;;;;4.85;100.00;101996.81;4952328;28;20046;-69
2020/12/18 05:16:41;;;;;;;28.52;9.27;;;;;;;4.90;100.00;101992.03;4966744;28;20496;-69
2020/12/18 05:19:07;;;;;;;25.00;8.52;;;;;;;4.89;100.00;101990.34;4952094;28;20042;-69
2020/12/18 05:21:35;;;;;;;32.45;8.25;;;;;;;4.88;100.00;101981.50;4952307;28;20436;-69
2020/12/18 05:24:01;;;;;;;29.05;7.72;;;;;;;4.94;100.00;101978.44;4952088;28;20039;-69
2020/12/18 05:26:28;;;;;;;26.25;7.63;;;;;;;4.92;100.00;101985.69;4951475;28;20373;-69
2020/12/18 05:29:02;;;;;;;31.55;8.25;;;;;;;4.88;100.00;101984.19;4952062;28;20031;-69
2020/12/18 05:31:29;;;;;;;28.52;8.00;;;;;;;4.92;100.00;101998.13;4951970;28;20114;-69
2020/12/18 05:33:54;;;;;;;28.85;7.78;;;;;;;4.87;100.00;101995.78;4951606;28;20039;-69
2020/12/18 05:36:24;;;;;;;31.38;9.95;;;;;;;4.86;100.00;101998.50;4951349;28;20338;-69
2020/12/18 05:38:50;;;;;;;22.08;8.02;;;;;;;4.84;100.00;101997.78;4951762;28;20031;-69
2020/12/18 05:41:21;;;;;;;30.65;7.32;;;;;;;4.86;100.00;101995.84;4951690;28;20039;-69
2020/12/18 05:43:47;;;;;;;25.52;7.38;;;;;;;4.89;100.00;101995.66;4951665;28;20443;-70
2020/12/18 05:46:20;;;;;;;23.42;7.32;;;;;;;4.98;100.00;101999.53;4951893;28;20143;-69
2020/12/18 05:48:55;;;;;;;20.75;7.10;;;;;;;4.95;100.00;101995.25;4951928;28;20035;-69
2020/12/18 05:51:40;;;;;;;20.77;7.07;;;;;;;5.03;100.00;101994.75;4966072;28;20031;-69
2020/12/18 05:54:07;;;;;;;28.98;8.00;;;;;;;5.12;100.00;102002.09;4950321;28;20373;-69
2020/12/18 05:56:33;;;;;;;23.48;8.23;;;;;;;5.23;100.00;102004.91;4949740;28;20038;-69
2020/12/18 05:59:06;;;;;;;33.15;9.75;;;;;;;5.30;100.00;102003.53;4950284;28;20031;-69
2020/12/18 06:01:32;;;;;;;31.50;9.18;;;;;;;5.34;100.00;101999.69;4950530;28;20027;-69
2020/12/18 06:04:08;;;;;;;20.63;6.43;;;;;;;5.38;100.00;102003.03;4950295;28;20096;-69
2020/12/18 06:06:35;;;;;;;31.25;7.13;;;;;;;5.42;100.00;101997.38;4950383;28;20046;-69
2020/12/18 06:09:02;;;;;;;21.83;8.02;;;;;;;5.41;100.00;101998.31;4950550;28;20058;-69
2020/12/18 06:11:31;;;;;;;24.05;6.47;;;;;;;5.45;100.00;102001.63;4949128;29;20027;-69
2020/12/18 06:13:59;;;;;;;21.80;6.28;;;;;;;5.51;100.00;101989.72;4965018;28;20365;-69
2020/12/18 06:16:28;;;;;;;21.42;6.28;;;;;;;5.50;100.00;101988.00;4948698;28;20085;-69
2020/12/18 06:19:03;;;;;;;19.65;7.07;;;;;;;5.61;100.00;102010.25;4950575;28;20106;-69
2020/12/18 06:21:29;;;;;;;25.80;7.30;;;;;;;5.73;100.00;102000.59;4949171;29;20035;-69
2020/12/18 06:23:54;;;;;;;27.63;7.97;;;;;;;5.81;100.00;102002.69;4950676;28;20035;-69
2020/12/18 06:26:21;;;;;;;20.08;6.43;;;;;;;5.93;100.00;102002.75;4949051;29;20117;-69
2020/12/18 06:28:47;;;;;;;20.63;6.63;;;;;;;6.09;100.00;101999.84;4950553;28;20046;-69
2020/12/18 06:31:23;;;;;;;22.52;5.75;;;;;;;6.16;100.00;101994.91;4949483;28;20395;-69
2020/12/18 06:33:51;;;;;;;20.83;5.43;;;;;;;6.20;100.00;101996.41;4950203;28;20086;-69
2020/12/18 06:36:18;;;;;;;19.70;5.30;;;;;;;6.27;100.00;101981.66;4949084;28;20036;-69
2020/12/18 06:38:44;;;;;;;17.55;5.82;;;;;;;6.27;100.00;101986.16;4964899;28;20035;-69
2020/12/18 06:41:22;;;;;;;16.60;4.55;;;;;;;6.31;100.00;101977.81;4949436;28;20085;-69
2020/12/18 06:43:48;;;;;;;20.55;5.28;;;;;;;6.42;100.00;101966.38;4949768;28;20107;-69
2020/12/18 06:46:18;;;;;;;19.67;4.95;;;;;;;6.43;100.00;101966.28;4949332;28;20027;-70
2020/12/18 06:48:50;;;;;;;15.30;4.97;;;;;;;6.48;100.00;101971.28;4950267;28;20118;-70
2020/12/18 06:51:29;;;;;;;17.13;5.07;;;;;;;6.62;100.00;101971.09;4949721;28;20031;-69
2020/12/18 06:54:07;;;;;;;26.45;4.90;;;;;;;6.65;100.00;101984.22;4948213;29;20564;-70
2020/12/18 06:56:32;;;;;;;16.88;5.13;;;;;;;6.68;100.00;101973.34;4936679;28;20512;-69
2020/12/18 06:59:17;;;;;;;20.38;4.97;;;;;;;6.85;100.00;101969.41;4949668;29;20062;-69
2020/12/18 07:01:42;;;;;;;13.25;4.68;;;;;;;6.83;100.00;101968.69;4948897;28;20027;-70
2020/12/18 07:04:19;;;;;;;23.35;5.20;;;;;;;6.90;100.00;101971.72;4950089;28;20389;-70
2020/12/18 07:06:44;;;;;;;15.65;4.47;;;;;;;6.94;100.00;101975.88;4948493;28;20126;-70
2020/12/18 07:09:11;;;;;;;17.60;5.28;;;;;;;7.00;100.00;101986.06;4950115;28;20160;-70
2020/12/18 07:11:37;;;;;;;14.55;4.80;;;;;;;7.11;100.00;101982.59;4949322;28;20023;-69
2020/12/18 07:14:03;;;;;;;16.02;4.40;;;;;;;7.13;100.00;101988.66;4949813;28;20404;-69
2020/12/18 07:16:29;;;;;;;21.10;6.35;;;;;;;7.16;100.00;101983.09;4949188;28;20049;-70
2020/12/18 07:18:58;;;;;;;19.88;5.97;;;;;;;7.19;100.00;101986.38;4949518;28;20106;-69
2020/12/18 07:21:23;;;;;;;19.42;5.32;;;;;;;7.22;100.00;101979.94;4949102;28;20276;-69
2020/12/18 07:23:52;;;;;;;18.63;4.47;;;;;;;7.20;100.00;101984.56;4949728;28;20457;-69
2020/12/18 07:26:19;;;;;;;18.17;4.75;;;;;;;7.26;100.00;101987.63;4948455;28;20118;-70
2020/12/18 07:28:46;;;;;;;9.02;4.25;;;;;;;7.39;100.00;101976.84;4952759;28;20467;-68
2020/12/18 07:31:19;;;;;;;22.00;4.55;;;;;;;7.44;100.00;101987.19;4952784;28;20122;-69
2020/12/18 07:33:52;;;;;;;22.23;6.00;;;;;;;7.48;100.00;101970.81;4952661;28;20043;-70
2020/12/18 07:36:18;;;;;;;11.80;4.22;;;;;;;7.45;100.00;101973.72;4952238;28;20027;-70
2020/12/18 07:38:44;;;;;;;16.95;4.70;;;;;;;7.43;100.00;101977.44;4952903;28;20031;-70
2020/12/18 07:41:14;;;;;;;16.48;4.47;;;;;;;7.46;100.00;101985.25;4952532;28;20035;-70
2020/12/18 07:43:41;;;;;;;14.45;4.82;;;;;;;7.35;100.00;101987.88;4952628;28;20562;-70
2020/12/18 07:46:09;;;;;;;17.05;6.07;;;;;;;7.29;100.00;101993.69;4952546;28;20507;-70
2020/12/18 07:48:37;;;;;;;13.88;4.35;;;;;;;7.23;100.00;102006.53;4952222;28;20586;-70
2020/12/18 07:51:07;;;;;;;22.08;4.93;;;;;;;7.22;100.00;102006.66;4952873;28;20050;-69
2020/12/18 07:53:36;;;;;;;17.45;4.45;;;;;;;7.20;100.00;102009.44;4952379;28;20039;-70
2020/12/18 07:56:05;;;;;;;14.55;4.38;;;;;;;7.22;100.00;102018.16;4944493;28;20508;-70
2020/12/18 07:58:32;;;;;;;27.85;5.20;;;;;;;7.27;100.00;102018.66;4947599;29;20043;-70
2020/12/18 08:01:07;;;;;;;8.70;3.83;;;;;;;7.18;100.00;102011.38;4953116;28;20035;-70
2020/12/18 08:03:33;;;;;;;21.13;4.65;;;;;;;7.16;100.00;102020.47;4952269;28;20039;-70
2020/12/18 08:06:01;;;;;;;13.73;4.50;;;;;;;7.07;100.00;102013.13;4953389;28;20034;-70
2020/12/18 08:08:29;;;;;;;20.92;5.05;;;;;;;7.08;100.00;102012.16;4951510;28;20035;-70
2020/12/18 08:10:54;;;;;;;15.75;4.05;;;;;;;7.05;100.00;102009.75;4952839;28;20042;-70
2020/12/18 08:13:27;;;;;;;19.10;5.03;;;;;;;6.96;100.00;102014.78;4951506;28;20039;-70
2020/12/18 08:16:07;;;;;;;13.85;4.57;;;;;;;6.89;100.00;102013.56;4952629;28;20554;-70
2020/12/18 08:18:34;;;;;;;25.08;4.35;;;;;;;6.87;100.00;102018.13;4939533;29;20032;-70
2020/12/18 08:21:00;;;;;;;16.02;4.20;;;;;;;6.80;100.00;102016.06;4952370;28;20043;-70
2020/12/18 08:23:28;;;;;;;13.60;4.53;;;;;;;6.72;100.00;102027.28;4951618;28;20038;-70
2020/12/18 08:25:56;;;;;;;21.33;5.22;;;;;;;6.71;100.00;102007.75;4952591;28;20035;-70
2020/12/18 08:28:25;;;;;;;19.13;4.75;;;;;;;6.71;100.00;102012.25;4951753;28;20063;-70
2020/12/18 08:30:52;;;;;;;14.90;4.88;;;;;;;6.73;100.00;102021.00;4952426;28;20027;-70
2020/12/18 08:33:19;;;;;;;15.10;5.20;;;;;;;6.72;100.00;102022.78;4951545;28;20023;-70
2020/12/18 08:35:52;;;;;;;19.75;5.45;;;;;;;6.73;100.00;102026.34;4951975;28;20558;-70
2020/12/18 08:38:18;;;;;;;13.40;5.35;;;;;;;6.77;100.00;102026.94;4950261;28;20039;-70
2020/12/18 08:40:44;;;;;;;16.67;5.03;;;;;;;6.81;100.00;102034.59;4951514;28;20567;-70
2020/12/18 08:43:10;;;;;;;15.13;5.22;;;;;;;6.84;100.00;102028.22;4951833;28;20039;-70
2020/12/18 08:45:43;;;;;;;11.68;4.88;;;;;;;6.86;100.00;102032.44;4951904;28;20031;-70
2020/12/18 08:48:10;;;;;;;15.10;5.38;;;;;;;6.91;100.00;102032.97;4966151;28;20054;-70
2020/12/18 08:50:37;;;;;;;15.02;5.60;;;;;;;6.94;100.00;102038.06;4951245;28;20043;-70
2020/12/18 08:53:12;;;;;;;17.45;5.40;;;;;;;6.90;100.00;102028.59;4951751;28;20624;-70
2020/12/18 08:55:37;;;;;;;11.98;4.00;;;;;;;6.91;100.00;102024.97;4946195;28;20051;-70
2020/12/18 08:58:05;;;;;;;15.48;4.07;;;;;;;6.95;100.00;102026.44;4943585;29;20519;-70
2020/12/18 09:00:31;;;;;;;13.73;4.25;;;;;;;6.97;100.00;102029.81;4966269;28;20496;-70
2020/12/18 09:02:58;;;;;;;20.90;4.75;;;;;;;7.00;100.00;102028.75;4951694;28;20110;-70
2020/12/18 09:05:27;;;;;;;14.55;4.13;;;;;;;7.10;100.00;102035.13;4950825;28;20039;-70
2020/12/18 09:07:54;;;;;;;12.18;4.28;;;;;;;7.15;100.00;102027.63;4950968;28;20035;-70
2020/12/18 09:10:26;;;;;;;19.08;4.65;;;;;;;7.16;100.00;102031.97;4951395;28;20130;-70
2020/12/18 09:12:52;;;;;;;16.92;4.20;;;;;;;7.23;100.00;102037.72;4951460;28;20098;-70
2020/12/18 09:15:19;;;;;;;11.23;4.40;;;;;;;7.30;100.00;102036.28;4950912;28;20496;-70
2020/12/18 09:17:45;;;;;;;18.95;4.13;;;;;;;7.36;100.00;102040.31;4950298;28;20027;-70
2020/12/18 09:20:23;;;;;;;16.02;5.13;;;;;;;7.45;100.00;102037.78;4951127;28;20038;-70
2020/12/18 09:23:06;;;;;;;12.55;4.15;;;;;;;7.50;100.00;102032.09;4951281;28;20042;-70
2020/12/18 09:25:40;;;;;;;18.23;4.07;;;;;;;7.61;100.00;102032.13;4950658;28;20035;-70
2020/12/18 09:28:11;;;;;;;13.25;4.60;;;;;;;7.65;100.00;102038.94;4950294;28;20385;-70
2020/12/18 09:30:37;;;;;;;20.40;4.28;;;;;;;7.68;100.00;102037.84;4950823;28;20027;-70
2020/12/18 09:33:14;;;;;;;20.33;4.53;;;;;;;7.76;100.00;102041.63;4950749;28;20511;-69
2020/12/18 09:35:41;;;;;;;17.50;4.35;;;;;;;7.79;100.00;102035.19;4950100;28;20118;-70
2020/12/18 09:38:07;;;;;;;17.25;4.90;;;;;;;7.81;100.00;102046.59;4950615;28;20035;-70
2020/12/18 09:40:33;;;;;;;17.92;4.57;;;;;;;7.84;100.00;102051.72;4950608;28;20499;-70
2020/12/18 09:42:59;;;;;;;16.67;5.45;;;;;;;7.90;100.00;102055.75;4950642;28;20035;-70
2020/12/18 09:45:24;;;;;;;12.68;4.28;;;;;;;7.97;100.00;102057.78;4950376;28;20034;-70
2020/12/18 09:47:50;;;;;;;15.57;4.00;;;;;;;8.02;100.00;102055.63;4950490;28;20034;-70
2020/12/18 09:50:15;;;;;;;19.75;4.15;;;;;;;8.08;100.00;102051.59;4948748;28;20035;-70
2020/12/18 09:52:41;;;;;;;15.90;4.25;;;;;;;8.14;100.00;102058.31;4950608;28;20182;-70
2020/12/18 09:55:07;;;;;;;14.90;4.03;;;;;;;8.26;100.00;102063.53;4948440;28;20035;-70
2020/12/18 09:57:34;;;;;;;13.15;4.97;;;;;;;8.32;100.00;102063.03;4938430;29;20105;-70
2020/12/18 10:00:03;;;;;;;16.30;4.18;;;;;;;8.36;100.00;102065.47;4933227;29;20035;-70
2020/12/18 10:02:28;;;;;;;12.27;3.67;;;;;;;8.40;100.00;102058.94;4950485;28;20106;-70
2020/12/18 10:04:56;;;;;;;12.02;3.75;;;;;;;8.48;100.00;102059.16;4949929;28;20227;-70
2020/12/18 10:07:21;;;;;;;15.02;4.05;;;;;;;8.54;100.00;102056.03;4949844;28;20042;-70
2020/12/18 10:09:47;;;;;;;11.32;2.90;;;;;;;8.65;100.00;102064.03;4949580;28;20047;-70
2020/12/18 10:12:12;;;;;;;11.20;3.35;;;;;;;8.67;100.00;102064.75;4950423;28;20035;-70
2020/12/18 10:14:38;;;;;;;8.00;3.25;;;;;;;8.82;100.00;102059.97;4950335;28;20130;-70
2020/12/18 10:17:04;;;;;;;13.20;3.05;;;;;;;8.91;100.00;102053.88;4949328;28;20035;-70
2020/12/18 10:19:29;;;;;;;11.43;3.92;;;;;;;8.95;100.00;102058.00;4950103;28;20035;-70
2020/12/18 10:21:55;;;;;;;13.07;2.88;;;;;;;9.04;100.00;102054.56;4950085;28;20464;-70
2020/12/18 10:24:20;;;;;;;15.82;3.33;;;;;;;9.04;100.00;102041.19;4949788;28;20269;-70
2020/12/18 10:26:48;;;;;;;10.55;2.40;;;;;;;9.07;100.00;102038.22;4949163;28;20437;-70
2020/12/18 10:29:13;;;;;;;11.57;2.67;;;;;;;9.15;100.00;102029.56;4950101;28;20078;-70
2020/12/18 10:31:39;;;;;;;10.63;2.15;;;;;;;9.21;100.00;102023.72;4949755;28;20063;-70
2020/12/18 10:34:04;;;;;;;8.15;2.20;;;;;;;9.21;100.00;102022.84;4949946;28;20445;-70
2020/12/18 10:36:30;;;;;;;9.93;2.60;;;;;;;9.22;100.00;102020.03;4949724;28;20047;-70
2020/12/18 10:38:56;;;;;;;11.32;2.22;;;;;;;9.32;100.00;102018.28;4949661;28;20535;-71
2020/12/18 10:41:21;;;;;;;11.15;2.83;;;;;;;9.37;100.00;102017.91;4949438;28;20070;-70
2020/12/18 10:43:47;;;;;;;7.72;2.20;;;;;;;9.39;100.00;102004.38;4949880;28;20456;-70
2020/12/18 10:46:13;;;;;;;6.65;2.08;;;;;;;9.45;100.00;102010.06;4949162;28;20034;-70
2020/12/18 10:48:38;;;;;;;6.43;2.20;;;;;;;9.56;100.00;102019.88;4949838;28;20042;-70
2020/12/18 10:51:04;;;;;;;8.88;2.20;;;;;;;9.58;100.00;102009.88;4949639;28;20159;-70
2020/12/18 10:53:29;;;;;;;15.82;2.85;;;;;;;9.65;100.00;102012.88;4949605;29;20042;-70
2020/12/18 10:55:55;;;;;;;11.18;2.53;;;;;;;9.68;100.00;102007.25;4942182;28;20043;-70
2020/12/18 10:58:20;;;;;;;6.53;2.08;;;;;;;9.69;100.00;102000.91;4943427;29;20035;-70
2020/12/18 11:00:46;;;;;;;7.43;2.15;;;;;;;9.72;100.00;101996.13;4949487;28;20121;-70
2020/12/18 11:03:12;;;;;;;8.98;2.35;;;;;;;9.83;100.00;101997.88;4951798;28;20067;-69
2020/12/18 11:05:37;;;;;;;8.63;2.30;;;;;;;9.85;99.47;101995.94;4953718;28;20042;-70
2020/12/18 11:08:03;;;;;;;8.75;1.77;;;;;;;9.91;98.64;102003.44;4952113;28;20038;-70
2020/12/18 11:10:28;;;;;;;6.20;1.77;;;;;;;9.89;100.00;101994.69;4953553;28;20031;-70
2020/12/18 11:12:54;;;;;;;12.40;1.98;;;;;;;9.88;99.31;101978.72;4952941;28;20058;-70
2020/12/18 11:15:19;;;;;;;12.73;2.30;;;;;;;9.92;98.79;101970.28;4953565;28;20031;-70
2020/12/18 11:17:45;;;;;;;6.80;2.08;;;;;;;9.97;98.06;101961.81;4952419;28;20520;-70